Strona główna
METAR-TAF:

METAR-TAF

Lotnisko :

Port lotniczy Kinszasa

Kinszasa, Kongo

Szerokość geograficzna: 04-23S, Długość geograficzna: 015-26E, wysokość: 309 m

Aktualna obserwacja pogody

Raport powstał 43 minut temu, godzina 18:30 UTC
Wiatr 4 kt od zachód
Temperatura 27°C
Wilgotność 74%
Ciśnienie 1011 hPa
Widzialność: 4000 m
zamglenie,

METAR: FZAA 251830Z 28004KT 4000 BR NSC 27/22 Q1011 NOSIG

czas: 20:13 (19:13 UTC)

Prognoza

Raport powstał 2 godziny i 13 minut temu, godzina 17:00 UTC
Prognoza ważna od 25 godzina 18 UTC do 26 godzina 24 UTC
Wiatr 6 kt od zachód
Widzialność: 5000 m
zmętnienie
Stopniowe zmiany
od 25 godzina 19 UTC do 25 godzina 21 UTC
Widzialność: 6000 m
Przejściowo
od 26 godzina 02 UTC do 26 godzina 05 UTC
Widzialność: 3000 m
Przerywane chmury na wysokości 1200 ft
zamglenie
Stopniowe zmiany
od 26 godzina 10 UTC do 26 godzina 12 UTC
Mało chmury na wysokości 2000 ft

TAF: FZAA 251700Z 2518/2624 26006KT 5000 HZ NSC BECMG 2519/2521 6000 NSW TEMPO 2602/2605 3000 BR BKN012 BECMG 2610/2612 FEW020

Obserwacja i prognoza pogody dla ponad 4000 lotnisk (raport METAR i TAF).

Dostępne stacje oznaczono żółtymi i czerwonymi punktami na mapie.

Najedź kursorem aby zobaczyć nazwę stacji.

Kliknij aby zobaczyć obserwacje i prognozy pogody.

Aby zmienić mapę: kliknij na zielony przycisk z czarnym krzyżykiem, aby powiększyć; na zielony przycisk z myślnikiem, aby pomniejszyć; na zielone strzałki, aby przejść do map sąsiednich.


METAR-TAF: